Time;durP1;ratioP1;P1;durP2;ratioP2;P2;SDS_P1;SDS_P2;PMS_P1;PMS_P2;Temp;Humidity;BMP_temperature;BMP_pressure;BME280_temperature;BME280_humidity;BME280_pressure;Samples;Min_cycle;Max_cycle;Signal;HPM_P1;HPM_P2
2022/09/30 00:02:13;;;;;;;29.40;17.55;;;6.60;99.90;;;;;;5018068;28;20487;-78
2022/09/30 00:04:39;;;;;;;28.35;17.73;;;6.60;99.90;;;;;;5035708;28;20025;-78
2022/09/30 00:07:04;;;;;;;29.85;18.52;;;6.60;99.90;;;;;;5017769;28;20068;-78
2022/09/30 00:09:30;;;;;;;31.73;19.00;;;6.60;99.90;;;;;;5017718;28;20480;-78
2022/09/30 00:11:56;;;;;;;38.15;21.65;;;6.60;99.90;;;;;;5017790;28;20045;-78
2022/09/30 00:14:22;;;;;;;33.90;20.60;;;6.50;99.90;;;;;;5035295;28;20026;-78
2022/09/30 00:16:49;;;;;;;32.53;20.38;;;6.50;99.90;;;;;;5017693;28;20480;-78
2022/09/30 00:19:15;;;;;;;41.83;23.40;;;6.50;99.90;;;;;;5017606;28;20045;-78
2022/09/30 00:21:41;;;;;;;34.97;22.98;;;6.50;99.90;;;;;;5017706;28;20529;-78
2022/09/30 00:24:07;;;;;;;43.75;23.25;;;6.50;99.90;;;;;;5017569;28;20060;-78
2022/09/30 00:26:34;;;;;;;39.42;23.70;;;6.50;99.90;;;;;;5035081;28;20029;-78
2022/09/30 00:29:01;;;;;;;40.05;22.92;;;6.50;99.90;;;;;;5033990;28;20037;-78
2022/09/30 00:31:30;;;;;;;43.40;25.17;;;6.60;99.90;;;;;;5033872;28;20079;-78
2022/09/30 00:34:07;;;;;;;47.33;27.55;;;6.60;99.90;;;;;;5017325;28;20031;-77
2022/09/30 00:36:33;;;;;;;49.83;28.33;;;6.60;99.90;;;;;;5017412;28;20021;-77
2022/09/30 00:38:58;;;;;;;50.72;29.52;;;6.60;99.90;;;;;;5035014;28;20479;-78
2022/09/30 00:41:24;;;;;;;47.28;26.52;;;6.70;99.90;;;;;;5034948;28;20025;-77
2022/09/30 00:43:53;;;;;;;45.92;26.45;;;6.70;99.90;;;;;;5035051;28;20025;-77
2022/09/30 00:46:38;;;;;;;43.97;26.77;;;6.80;99.90;;;;;;5034912;28;20395;-78
2022/09/30 00:49:16;;;;;;;42.35;25.55;;;6.80;99.90;;;;;;5017075;28;20038;-78
2022/09/30 00:51:47;;;;;;;43.83;25.25;;;6.80;99.90;;;;;;5017201;28;20045;-77
2022/09/30 00:54:18;;;;;;;41.92;22.08;;;6.80;99.90;;;;;;5017080;28;20025;-77
2022/09/30 00:56:51;;;;;;;36.05;22.95;;;6.90;99.90;;;;;;5034447;28;20022;-78
2022/09/30 00:59:23;;;;;;;36.55;21.40;;;6.90;99.90;;;;;;5034637;28;20391;-77
2022/09/30 01:01:48;;;;;;;41.40;24.48;;;7.00;99.90;;;;;;5034622;28;20022;-78
2022/09/30 01:04:19;;;;;;;39.38;25.30;;;7.00;99.90;;;;;;5034501;28;20044;-78
2022/09/30 01:06:45;;;;;;;41.03;24.25;;;7.10;99.90;;;;;;5034504;28;20029;-77
2022/09/30 01:09:11;;;;;;;45.03;26.33;;;7.10;99.90;;;;;;5016531;28;20377;-78
2022/09/30 01:11:36;;;;;;;42.55;24.42;;;7.10;99.90;;;;;;5016616;28;20025;-78
2022/09/30 01:14:07;;;;;;;43.70;25.70;;;7.20;99.90;;;;;;5016622;28;20025;-77
2022/09/30 01:16:49;;;;;;;42.65;25.48;;;7.20;99.90;;;;;;5016661;28;20021;-78
2022/09/30 01:19:46;;;;;;;47.88;24.50;;;7.30;99.90;;;;;;5034327;28;20021;-77
2022/09/30 01:22:32;;;;;;;44.35;24.63;;;7.30;99.90;;;;;;5016370;28;20399;-78
2022/09/30 01:25:10;;;;;;;48.10;26.58;;;7.30;99.90;;;;;;5016247;28;20022;-78
2022/09/30 01:27:38;;;;;;;45.25;26.17;;;7.30;99.90;;;;;;5016337;28;20069;-78
2022/09/30 01:30:19;;;;;;;47.63;26.25;;;7.30;99.90;;;;;;5034305;28;20033;-77
2022/09/30 01:32:48;;;;;;;44.72;25.95;;;7.40;99.90;;;;;;5034058;28;20029;-78
2022/09/30 01:35:36;;;;;;;46.55;25.08;;;7.40;99.90;;;;;;5034027;28;20030;-78
2022/09/30 01:38:04;;;;;;;51.05;26.52;;;7.40;99.90;;;;;;5033782;28;20075;-77
2022/09/30 01:40:57;;;;;;;46.78;23.98;;;7.40;99.90;;;;;;5016156;28;20021;-78
2022/09/30 01:43:30;;;;;;;50.33;27.38;;;7.40;99.90;;;;;;5016118;28;20235;-77
2022/09/30 01:46:07;;;;;;;49.85;26.67;;;7.50;99.90;;;;;;5034167;28;20120;-78
2022/09/30 01:48:51;;;;;;;48.20;25.92;;;7.50;99.90;;;;;;5015980;28;20148;-78
2022/09/30 01:51:29;;;;;;;44.08;24.13;;;7.50;99.90;;;;;;5016010;28;20057;-77
2022/09/30 01:54:04;;;;;;;42.95;24.88;;;7.50;99.90;;;;;;5015806;28;20021;-77
2022/09/30 01:56:46;;;;;;;41.90;23.63;;;7.60;99.90;;;;;;5016032;28;20025;-78
2022/09/30 01:59:39;;;;;;;49.85;26.52;;;7.60;99.90;;;;;;5015808;28;20026;-77
2022/09/30 02:02:10;;;;;;;43.60;24.98;;;7.60;99.90;;;;;;5015111;28;20034;-78
2022/09/30 02:04:51;;;;;;;49.65;27.65;;;7.60;99.90;;;;;;5033565;28;20079;-78
2022/09/30 02:07:30;;;;;;;46.75;24.73;;;7.60;99.90;;;;;;5033398;28;20017;-78
2022/09/30 02:10:08;;;;;;;48.17;25.95;;;7.60;99.90;;;;;;5033385;28;20036;-77
2022/09/30 02:12:40;;;;;;;42.58;24.52;;;7.60;99.90;;;;;;5015670;28;20025;-78
2022/09/30 02:15:13;;;;;;;44.20;26.60;;;7.60;99.90;;;;;;5033411;28;20478;-78
2022/09/30 02:18:12;;;;;;;46.08;26.77;;;7.70;99.90;;;;;;5033349;28;20022;-78
2022/09/30 02:20:41;;;;;;;43.00;25.17;;;7.70;99.90;;;;;;5015405;28;20042;-78
2022/09/30 02:23:21;;;;;;;48.00;26.02;;;7.70;99.90;;;;;;5015455;28;20116;-78
2022/09/30 02:25:54;;;;;;;44.40;24.50;;;7.70;99.90;;;;;;5015388;28;20063;-78
2022/09/30 02:28:26;;;;;;;45.28;25.23;;;7.70;99.90;;;;;;5015369;28;20064;-78
2022/09/30 02:30:56;;;;;;;43.47;24.33;;;7.70;99.90;;;;;;5015452;28;20387;-78
2022/09/30 02:33:32;;;;;;;40.47;25.25;;;7.70;99.90;;;;;;5015286;28;20014;-78
2022/09/30 02:36:08;;;;;;;39.25;24.27;;;7.70;99.90;;;;;;5015324;28;20087;-77
2022/09/30 02:38:40;;;;;;;41.90;23.85;;;7.60;99.90;;;;;;5014420;28;20112;-77
2022/09/30 02:41:20;;;;;;;35.63;21.63;;;7.60;99.90;;;;;;5015445;28;20083;-77
2022/09/30 02:43:47;;;;;;;39.53;23.83;;;7.60;99.90;;;;;;5015209;28;20029;-78
2022/09/30 02:46:26;;;;;;;35.78;22.48;;;7.70;99.90;;;;;;5015291;28;20116;-78
2022/09/30 02:49:07;;;;;;;40.95;22.50;;;7.70;99.90;;;;;;5033131;28;20121;-78
2022/09/30 02:51:53;;;;;;;37.60;22.50;;;7.70;99.90;;;;;;5015352;28;20506;-78
2022/09/30 02:54:21;;;;;;;42.35;22.08;;;7.70;99.90;;;;;;5015140;28;20029;-78
2022/09/30 02:56:56;;;;;;;35.60;20.58;;;7.70;99.90;;;;;;5015258;28;20032;-77
2022/09/30 02:59:23;;;;;;;34.05;20.55;;;7.70;99.90;;;;;;5032772;28;20022;-78
2022/09/30 03:01:49;;;;;;;35.88;20.25;;;7.80;99.90;;;;;;5015164;28;20025;-78
2022/09/30 03:04:25;;;;;;;33.63;20.42;;;7.80;99.90;;;;;;5032667;28;20036;-78
2022/09/30 03:06:51;;;;;;;30.98;17.67;;;7.80;99.90;;;;;;5032687;28;20021;-78
2022/09/30 03:09:17;;;;;;;30.60;17.80;;;7.80;99.90;;;;;;5032715;28;20061;-78
2022/09/30 03:11:43;;;;;;;25.45;15.75;;;7.80;99.90;;;;;;5032824;28;20083;-78
2022/09/30 03:14:35;;;;;;;29.92;16.25;;;7.80;99.90;;;;;;5015023;28;20029;-78
2022/09/30 03:17:26;;;;;;;25.73;15.85;;;7.90;99.90;;;;;;5015053;28;20029;-78
2022/09/30 03:19:57;;;;;;;28.73;16.73;;;7.90;99.90;;;;;;5014569;28;20037;-78
2022/09/30 03:22:55;;;;;;;32.55;16.48;;;7.90;99.90;;;;;;5014116;28;20176;-78
2022/09/30 03:25:51;;;;;;;31.10;17.45;;;7.90;99.90;;;;;;5031600;28;20171;-78
2022/09/30 03:28:17;;;;;;;26.55;16.25;;;8.00;99.90;;;;;;5031610;28;20034;-78
2022/09/30 03:30:58;;;;;;;29.02;17.95;;;8.00;99.90;;;;;;5031752;28;20026;-78
2022/09/30 03:33:31;;;;;;;26.85;16.30;;;8.00;99.90;;;;;;5031765;28;20049;-78
2022/09/30 03:36:15;;;;;;;26.08;16.27;;;8.00;99.90;;;;;;5013843;28;20033;-78
2022/09/30 03:38:50;;;;;;;28.65;15.27;;;8.00;99.90;;;;;;5031473;28;20105;-77
2022/09/30 03:41:20;;;;;;;25.13;15.93;;;8.00;99.90;;;;;;5031643;28;20034;-78
2022/09/30 03:43:48;;;;;;;27.60;15.88;;;8.00;99.90;;;;;;5013666;28;20467;-78
2022/09/30 03:46:17;;;;;;;22.65;13.80;;;8.00;99.90;;;;;;5031433;28;20464;-78
2022/09/30 03:48:45;;;;;;;24.95;14.88;;;8.10;99.90;;;;;;5014215;28;20487;-77
2022/09/30 03:51:12;;;;;;;23.85;13.98;;;8.10;99.90;;;;;;5034749;28;20510;-77
2022/09/30 03:53:42;;;;;;;22.48;14.23;;;8.20;99.90;;;;;;5017275;28;20018;-78
2022/09/30 03:56:08;;;;;;;26.42;15.25;;;8.20;99.90;;;;;;5016889;28;20029;-77
2022/09/30 03:58:35;;;;;;;22.33;13.43;;;8.20;99.90;;;;;;5016932;28;20033;-78
2022/09/30 04:01:01;;;;;;;24.77;14.30;;;8.20;99.90;;;;;;5034425;28;20025;-79
2022/09/30 04:03:27;;;;;;;19.63;12.80;;;8.30;99.90;;;;;;5016865;28;20018;-78
2022/09/30 04:05:53;;;;;;;21.65;14.02;;;8.30;99.90;;;;;;5034440;28;20104;-77
2022/09/30 04:08:19;;;;;;;22.65;13.32;;;8.30;99.90;;;;;;5034582;28;20109;-78
2022/09/30 04:10:44;;;;;;;20.25;13.63;;;8.30;99.90;;;;;;5016735;28;20121;-78
2022/09/30 04:13:10;;;;;;;21.38;14.43;;;8.40;99.90;;;;;;5034402;28;20075;-78
2022/09/30 04:15:36;;;;;;;18.23;12.15;;;8.40;99.90;;;;;;5016671;28;20025;-78
2022/09/30 04:18:03;;;;;;;20.33;12.55;;;8.30;99.90;;;;;;5034723;28;20074;-77
2022/09/30 04:20:30;;;;;;;20.60;13.25;;;8.40;99.90;;;;;;4996640;28;1094589;-79
2022/09/30 04:22:58;;;;;;;21.55;12.18;;;8.40;99.90;;;;;;5035350;28;20034;-79
2022/09/30 04:25:24;;;;;;;20.08;12.63;;;8.40;99.90;;;;;;5017459;28;20476;-78
2022/09/30 04:27:49;;;;;;;18.88;12.57;;;8.40;99.90;;;;;;5035323;28;20021;-77
2022/09/30 04:30:15;;;;;;;22.33;13.68;;;8.40;99.90;;;;;;5017328;28;20033;-78
2022/09/30 04:32:44;;;;;;;20.80;13.60;;;8.40;99.90;;;;;;5035265;28;20017;-78
2022/09/30 04:35:13;;;;;;;20.77;13.02;;;8.40;99.90;;;;;;5035323;28;20033;-78
2022/09/30 04:37:45;;;;;;;20.02;13.07;;;8.40;99.90;;;;;;5017441;28;20021;-78
2022/09/30 04:40:12;;;;;;;19.80;11.93;;;8.40;99.90;;;;;;5017227;28;20030;-77
2022/09/30 04:42:41;;;;;;;21.08;13.32;;;8.40;99.90;;;;;;5035155;28;20059;-77
2022/09/30 04:45:08;;;;;;;20.50;12.57;;;8.40;99.90;;;;;;5034870;28;20470;-77
2022/09/30 04:47:34;;;;;;;21.50;12.57;;;8.40;99.90;;;;;;5017092;28;20030;-78
2022/09/30 04:49:59;;;;;;;20.63;13.35;;;8.40;99.90;;;;;;5017021;28;20052;-78
2022/09/30 04:52:25;;;;;;;21.23;12.52;;;8.40;99.90;;;;;;5034849;28;20418;-78
2022/09/30 04:54:51;;;;;;;20.23;12.88;;;8.40;99.90;;;;;;5016888;28;20112;-78
2022/09/30 04:57:16;;;;;;;18.08;11.43;;;8.40;99.90;;;;;;5017035;28;20025;-78
2022/09/30 04:59:42;;;;;;;19.10;13.55;;;8.40;99.90;;;;;;5016440;28;20017;-77
2022/09/30 05:02:09;;;;;;;21.58;12.38;;;8.40;99.90;;;;;;5034092;28;20475;-78
2022/09/30 05:04:35;;;;;;;21.00;12.93;;;8.40;99.90;;;;;;5016811;28;20034;-77
2022/09/30 05:07:02;;;;;;;23.10;15.20;;;8.40;99.90;;;;;;5042204;28;20017;-77
2022/09/30 05:09:28;;;;;;;19.65;12.80;;;8.40;99.90;;;;;;5036358;28;20075;-78
2022/09/30 05:11:53;;;;;;;20.05;12.23;;;8.40;99.90;;;;;;5036483;28;20056;-78
2022/09/30 05:14:19;;;;;;;25.90;13.63;;;8.40;99.90;;;;;;5054541;28;20020;-78
2022/09/30 05:16:45;;;;;;;22.02;13.15;;;8.40;99.90;;;;;;5055542;28;20039;-78
2022/09/30 05:19:10;;;;;;;24.10;13.38;;;8.40;99.90;;;;;;5053992;28;20086;-79
2022/09/30 05:21:36;;;;;;;19.90;13.68;;;8.40;99.90;;;;;;5012818;28;20057;-72
2022/09/30 05:24:02;;;;;;;21.45;13.27;;;8.50;99.90;;;;;;5016872;28;20025;-77
2022/09/30 05:26:28;;;;;;;19.60;12.70;;;8.50;99.90;;;;;;5028001;28;20077;-79
2022/09/30 05:28:53;;;;;;;19.13;13.05;;;8.40;99.90;;;;;;5033084;28;20049;-79
2022/09/30 05:31:22;;;;;;;18.92;12.02;;;8.50;99.90;;;;;;5014837;28;20033;-78
2022/09/30 05:33:47;;;;;;;16.25;11.98;;;8.50;99.90;;;;;;5035391;28;20386;-76
2022/09/30 05:36:14;;;;;;;19.65;11.93;;;8.50;99.90;;;;;;5037477;28;20040;-75
2022/09/30 05:38:40;;;;;;;17.60;11.52;;;8.50;99.90;;;;;;5044152;28;20032;-76
2022/09/30 05:41:10;;;;;;;15.77;11.73;;;8.50;99.90;;;;;;5032740;28;20110;-76
2022/09/30 05:43:40;;;;;;;16.55;11.82;;;8.60;99.90;;;;;;5029063;28;20083;-76
2022/09/30 05:46:06;;;;;;;17.38;11.15;;;8.50;99.90;;;;;;5053416;28;20052;-76
2022/09/30 05:48:31;;;;;;;19.30;11.88;;;8.60;99.90;;;;;;5035096;28;20041;-77
2022/09/30 05:51:00;;;;;;;18.20;12.23;;;8.60;99.90;;;;;;5053190;28;20075;-78
2022/09/30 05:53:27;;;;;;;15.18;11.23;;;8.70;99.90;;;;;;5035386;28;20021;-76
2022/09/30 05:55:52;;;;;;;16.58;11.27;;;8.70;99.90;;;;;;5052963;28;20033;-76
2022/09/30 05:58:19;;;;;;;19.35;11.98;;;8.70;99.90;;;;;;5051727;28;20496;-76
2022/09/30 06:00:46;;;;;;;19.75;11.57;;;8.70;99.90;;;;;;5052794;28;20025;-76
2022/09/30 06:03:13;;;;;;;16.42;9.90;;;8.70;99.90;;;;;;5031430;28;20063;-76
2022/09/30 06:05:38;;;;;;;15.55;11.23;;;8.70;99.90;;;;;;5010614;28;20022;-76
2022/09/30 06:08:06;;;;;;;17.55;11.30;;;8.80;99.90;;;;;;5029356;28;20119;-77
2022/09/30 06:10:33;;;;;;;15.90;10.63;;;8.80;99.90;;;;;;5030488;28;20356;-76
2022/09/30 06:12:59;;;;;;;19.02;11.05;;;8.80;99.90;;;;;;5012871;28;20068;-76
2022/09/30 06:15:25;;;;;;;17.80;12.60;;;8.70;99.90;;;;;;5031300;28;20033;-76
2022/09/30 06:17:54;;;;;;;16.85;11.70;;;8.80;99.90;;;;;;5031028;28;20017;-76
2022/09/30 06:20:20;;;;;;;19.30;11.93;;;8.80;99.90;;;;;;5012873;28;20049;-76
2022/09/30 06:22:45;;;;;;;14.60;10.98;;;8.80;99.90;;;;;;5033915;28;20033;-76
2022/09/30 06:25:11;;;;;;;15.88;10.57;;;8.80;99.90;;;;;;5053183;28;20025;-76
2022/09/30 06:27:37;;;;;;;16.15;11.20;;;8.80;99.90;;;;;;5053019;28;20032;-76
2022/09/30 06:30:04;;;;;;;17.08;11.20;;;8.80;99.90;;;;;;5053010;28;20043;-76
2022/09/30 06:32:30;;;;;;;15.57;11.38;;;8.80;99.90;;;;;;5021392;28;20025;-77
2022/09/30 06:34:55;;;;;;;15.80;11.55;;;8.80;99.90;;;;;;5032691;28;20365;-76
2022/09/30 06:37:21;;;;;;;19.77;12.18;;;8.80;99.90;;;;;;5032819;28;20025;-76
2022/09/30 06:39:49;;;;;;;18.25;11.43;;;8.80;99.90;;;;;;5032625;28;20039;-76
2022/09/30 06:42:14;;;;;;;16.70;11.00;;;8.80;99.90;;;;;;5032762;28;20064;-76
2022/09/30 06:44:40;;;;;;;16.60;11.38;;;8.80;99.90;;;;;;5032716;28;20111;-76
2022/09/30 06:47:06;;;;;;;18.63;12.07;;;8.80;99.90;;;;;;5015141;28;20365;-76
2022/09/30 06:49:32;;;;;;;19.65;12.63;;;8.80;99.90;;;;;;5032857;28;20484;-76
2022/09/30 06:51:59;;;;;;;21.08;12.10;;;8.80;99.90;;;;;;5015199;28;20036;-76
2022/09/30 06:54:27;;;;;;;17.88;11.05;;;8.80;99.90;;;;;;5033038;28;20018;-76
2022/09/30 06:56:54;;;;;;;17.10;11.18;;;8.90;99.90;;;;;;5011576;28;20018;-77
2022/09/30 06:59:20;;;;;;;19.77;12.40;;;8.80;99.90;;;;;;5013180;28;20113;-76
2022/09/30 07:01:45;;;;;;;16.80;12.43;;;8.90;99.90;;;;;;5011510;28;20072;-76
2022/09/30 07:04:11;;;;;;;19.23;12.43;;;8.90;99.90;;;;;;5021564;28;20034;-76
2022/09/30 07:06:37;;;;;;;16.85;12.35;;;8.90;99.90;;;;;;5032432;28;20044;-76
2022/09/30 07:09:04;;;;;;;16.75;12.60;;;8.90;99.90;;;;;;5032862;28;20108;-76
2022/09/30 07:11:30;;;;;;;19.15;12.45;;;8.90;99.90;;;;;;5021941;28;20029;-76
2022/09/30 07:13:56;;;;;;;20.83;12.55;;;8.90;99.90;;;;;;5031742;28;20398;-76
2022/09/30 07:16:24;;;;;;;21.17;13.23;;;8.90;99.90;;;;;;5032006;28;20017;-76
2022/09/30 07:18:50;;;;;;;19.25;12.88;;;8.90;99.90;;;;;;5030650;28;20064;-76
2022/09/30 07:21:16;;;;;;;23.90;14.00;;;8.90;99.90;;;;;;5031035;28;20088;-76
2022/09/30 07:23:46;;;;;;;24.23;13.57;;;8.90;99.90;;;;;;5031828;28;20017;-76
2022/09/30 07:26:16;;;;;;;22.85;14.63;;;8.90;99.90;;;;;;5037080;28;20044;-75
2022/09/30 07:28:42;;;;;;;21.15;13.93;;;8.90;99.90;;;;;;5034979;28;20483;-76
2022/09/30 07:31:20;;;;;;;22.17;12.82;;;8.90;99.90;;;;;;5036294;28;20025;-76
2022/09/30 07:33:46;;;;;;;23.05;14.32;;;8.80;99.90;;;;;;5036054;28;20025;-75
2022/09/30 07:36:17;;;;;;;24.05;16.05;;;8.90;99.90;;;;;;5018441;28;20033;-75
2022/09/30 07:38:43;;;;;;;23.75;14.48;;;8.90;99.90;;;;;;5016890;28;20021;-76
2022/09/30 07:41:12;;;;;;;23.73;14.27;;;8.90;99.90;;;;;;5016480;28;20029;-76
2022/09/30 07:43:38;;;;;;;24.27;15.52;;;8.90;99.90;;;;;;5017227;28;20032;-76
2022/09/30 07:46:10;;;;;;;22.08;14.68;;;8.80;99.90;;;;;;5017086;28;20060;-76
2022/09/30 07:48:50;;;;;;;22.90;13.87;;;8.80;99.90;;;;;;5035560;28;20100;-76
2022/09/30 07:51:20;;;;;;;23.33;13.88;;;8.80;99.90;;;;;;5017086;28;20108;-76
2022/09/30 07:53:55;;;;;;;25.83;15.80;;;8.80;99.90;;;;;;5016321;28;20021;-76
2022/09/30 07:56:22;;;;;;;24.88;14.95;;;8.90;99.90;;;;;;5034905;28;20033;-76
2022/09/30 07:58:51;;;;;;;22.27;13.77;;;9.00;99.90;;;;;;5034881;28;20025;-76
2022/09/30 08:01:17;;;;;;;23.90;15.82;;;9.00;99.90;;;;;;5017440;28;20044;-76
2022/09/30 08:03:45;;;;;;;24.75;15.70;;;9.00;99.90;;;;;;5035716;28;20407;-75
2022/09/30 08:06:15;;;;;;;22.52;14.23;;;9.00;99.90;;;;;;5035974;28;20013;-76
2022/09/30 08:08:42;;;;;;;23.42;14.40;;;9.00;99.90;;;;;;5034465;28;20025;-76
2022/09/30 08:11:09;;;;;;;25.00;14.85;;;9.00;99.90;;;;;;5034571;28;20018;-76
2022/09/30 08:13:35;;;;;;;25.83;13.88;;;9.00;99.90;;;;;;5034504;28;20033;-75
2022/09/30 08:16:01;;;;;;;20.52;12.95;;;9.00;99.90;;;;;;5035612;28;20026;-76
2022/09/30 08:18:27;;;;;;;23.63;14.60;;;9.00;99.90;;;;;;5034325;28;20023;-76
2022/09/30 08:20:53;;;;;;;22.98;13.68;;;9.00;99.90;;;;;;5035671;28;20104;-76
2022/09/30 08:23:18;;;;;;;23.48;15.40;;;9.00;99.90;;;;;;5034396;28;20104;-76
2022/09/30 08:25:44;;;;;;;22.08;14.13;;;8.90;99.90;;;;;;5034190;28;20052;-76
2022/09/30 08:28:10;;;;;;;23.10;13.82;;;8.90;99.90;;;;;;5034132;28;20037;-76
2022/09/30 08:30:37;;;;;;;21.67;13.43;;;8.90;99.90;;;;;;5035475;28;20080;-76
2022/09/30 08:33:04;;;;;;;23.58;14.13;;;8.90;99.90;;;;;;5018520;28;20430;-76
2022/09/30 08:35:29;;;;;;;21.85;13.18;;;8.90;99.90;;;;;;5035391;28;20033;-76
2022/09/30 08:37:55;;;;;;;23.23;13.73;;;8.80;99.90;;;;;;5017557;28;20030;-76
2022/09/30 08:40:25;;;;;;;18.98;12.65;;;8.90;99.90;;;;;;5017395;28;20017;-76
2022/09/30 08:42:56;;;;;;;18.65;11.90;;;8.90;99.90;;;;;;5035205;28;20026;-76
2022/09/30 08:45:30;;;;;;;21.48;13.13;;;9.00;99.90;;;;;;5035222;28;20075;-76
2022/09/30 08:48:27;;;;;;;18.40;11.80;;;9.00;99.90;;;;;;5017301;28;20048;-76
2022/09/30 08:51:19;;;;;;;19.77;12.05;;;9.00;99.90;;;;;;5007512;28;20037;-76
2022/09/30 08:53:47;;;;;;;20.75;11.57;;;9.00;99.90;;;;;;5035035;28;20017;-76
2022/09/30 08:56:23;;;;;;;20.90;11.65;;;9.10;99.90;;;;;;5017274;28;20014;-76
2022/09/30 08:58:51;;;;;;;18.73;11.32;;;9.10;99.90;;;;;;5017105;28;20022;-76
2022/09/30 09:01:28;;;;;;;21.88;11.38;;;9.20;99.90;;;;;;5017177;28;20403;-76
2022/09/30 09:03:54;;;;;;;19.92;11.45;;;9.20;99.90;;;;;;5034561;28;20026;-76
2022/09/30 09:06:37;;;;;;;18.95;10.15;;;9.30;99.90;;;;;;5035004;28;20026;-76
2022/09/30 09:09:28;;;;;;;18.20;10.30;;;9.30;99.90;;;;;;5033472;28;20042;-76
2022/09/30 09:12:12;;;;;;;18.67;9.90;;;9.30;99.90;;;;;;5033540;28;20491;-76
2022/09/30 09:15:02;;;;;;;17.10;9.68;;;9.30;99.90;;;;;;5033291;28;20029;-76
2022/09/30 09:18:06;;;;;;;17.67;9.30;;;9.30;99.90;;;;;;5034842;28;20080;-76
2022/09/30 09:20:37;;;;;;;20.65;12.82;;;9.40;99.90;;;;;;5016303;28;20041;-76
2022/09/30 09:23:07;;;;;;;15.30;9.40;;;9.40;99.90;;;;;;5033357;28;20045;-76
2022/09/30 09:25:33;;;;;;;17.98;10.05;;;9.40;99.90;;;;;;5033173;28;20033;-76
2022/09/30 09:28:01;;;;;;;18.05;10.30;;;9.50;99.90;;;;;;5034107;28;20384;-76
2022/09/30 09:30:33;;;;;;;15.63;10.75;;;9.60;99.90;;;;;;5032794;28;20068;-76
2022/09/30 09:33:20;;;;;;;14.27;10.00;;;9.60;99.90;;;;;;5034340;28;20017;-76
2022/09/30 09:36:26;;;;;;;15.25;9.32;;;9.60;99.90;;;;;;5034269;28;20068;-76
2022/09/30 09:39:10;;;;;;;17.95;9.43;;;9.70;99.90;;;;;;5033961;28;20031;-76
2022/09/30 09:41:38;;;;;;;13.80;8.77;;;9.80;99.90;;;;;;5034191;28;20101;-76
2022/09/30 09:44:29;;;;;;;11.63;8.05;;;9.80;99.90;;;;;;5016270;28;20026;-76
2022/09/30 09:47:04;;;;;;;9.85;7.05;;;9.80;99.90;;;;;;5033617;28;20028;-76
2022/09/30 09:49:37;;;;;;;13.07;8.32;;;9.90;99.90;;;;;;5034394;28;20052;-76
2022/09/30 09:52:11;;;;;;;11.73;7.20;;;10.00;99.90;;;;;;5016286;28;20064;-76
2022/09/30 09:54:45;;;;;;;9.85;7.65;;;10.00;99.90;;;;;;5033895;28;20422;-76
2022/09/30 09:57:14;;;;;;;13.05;7.25;;;10.10;99.90;;;;;;5016120;28;20025;-76
2022/09/30 10:03:08;;;;;;;9.60;6.82;;;10.20;99.90;;;;;;5033926;28;20394;-76
2022/09/30 10:05:41;;;;;;;11.88;6.68;;;10.20;99.90;;;;;;5033732;28;20475;-76
2022/09/30 10:08:22;;;;;;;9.55;7.07;;;10.20;99.90;;;;;;5033653;28;20530;-76
2022/09/30 10:10:53;;;;;;;11.35;7.00;;;10.20;99.90;;;;;;5033649;28;20018;-76
2022/09/30 10:13:24;;;;;;;9.57;6.63;;;10.20;99.90;;;;;;5033594;28;20479;-76
2022/09/30 10:15:55;;;;;;;7.20;5.93;;;10.30;99.90;;;;;;5032309;28;20017;-76
2022/09/30 10:18:34;;;;;;;9.93;5.90;;;10.20;99.90;;;;;;5032334;28;20092;-75
2022/09/30 10:21:21;;;;;;;8.55;6.90;;;10.20;99.90;;;;;;5018153;28;20037;-76
2022/09/30 10:23:47;;;;;;;10.27;6.47;;;10.30;99.90;;;;;;5033527;28;20025;-76
2022/09/30 10:26:13;;;;;;;9.65;6.15;;;10.40;99.90;;;;;;5015694;28;20048;-76
2022/09/30 10:28:47;;;;;;;8.85;6.88;;;10.40;99.90;;;;;;5015539;28;20044;-76
2022/09/30 10:31:35;;;;;;;7.97;6.07;;;10.40;99.90;;;;;;5015445;28;20067;-76
2022/09/30 10:34:04;;;;;;;8.05;7.10;;;10.40;99.90;;;;;;5033342;28;20021;-76
2022/09/30 10:36:35;;;;;;;10.77;7.85;;;10.40;99.90;;;;;;5015532;28;20040;-76
2022/09/30 10:39:18;;;;;;;10.48;6.75;;;10.40;99.90;;;;;;5033143;28;20097;-76
2022/09/30 10:41:43;;;;;;;7.82;5.70;;;10.40;99.90;;;;;;5033379;28;20468;-76
2022/09/30 10:44:20;;;;;;;8.82;6.28;;;10.40;99.90;;;;;;5033273;28;20040;-76
2022/09/30 10:46:49;;;;;;;9.30;6.57;;;10.40;99.90;;;;;;5033175;28;20156;-76
2022/09/30 10:49:26;;;;;;;7.72;6.70;;;10.30;99.90;;;;;;5033078;28;20025;-76
2022/09/30 10:51:54;;;;;;;6.70;5.93;;;10.40;99.90;;;;;;5033161;28;20017;-76
2022/09/30 10:54:49;;;;;;;8.98;6.35;;;10.40;99.90;;;;;;5033137;28;20029;-76
2022/09/30 10:57:19;;;;;;;8.82;5.85;;;10.40;99.90;;;;;;5015411;28;20418;-76
2022/09/30 10:59:45;;;;;;;6.45;4.82;;;10.50;99.90;;;;;;5017891;28;20387;-76
2022/09/30 11:02:29;;;;;;;6.35;5.75;;;10.50;99.90;;;;;;5037065;28;20467;-76
2022/09/30 11:05:21;;;;;;;6.85;5.38;;;10.50;99.90;;;;;;5037140;28;20036;-76
2022/09/30 11:07:49;;;;;;;6.60;4.82;;;10.40;99.90;;;;;;5037114;28;20025;-76
2022/09/30 11:10:40;;;;;;;6.15;5.13;;;10.50;99.90;;;;;;5035675;28;20041;-76
2022/09/30 11:13:37;;;;;;;5.88;4.50;;;10.50;99.90;;;;;;5035705;28;20056;-76
2022/09/30 11:16:09;;;;;;;5.53;5.03;;;10.50;99.90;;;;;;5036815;28;20391;-76
2022/09/30 11:18:51;;;;;;;7.95;6.05;;;10.50;99.90;;;;;;5035699;28;20021;-76
2022/09/30 11:21:28;;;;;;;7.43;5.30;;;10.60;99.90;;;;;;5035561;28;20084;-76
2022/09/30 11:23:59;;;;;;;6.07;4.97;;;10.60;99.90;;;;;;5035508;28;20189;-76
2022/09/30 11:26:46;;;;;;;5.15;4.50;;;10.60;99.90;;;;;;5036703;28;20101;-76
2022/09/30 11:29:26;;;;;;;5.88;4.95;;;10.70;99.90;;;;;;5036620;28;20029;-76
2022/09/30 11:32:04;;;;;;;6.30;5.30;;;10.70;99.90;;;;;;5036561;28;20097;-76
2022/09/30 11:34:54;;;;;;;6.75;4.50;;;10.80;99.90;;;;;;5018782;28;20439;-76
2022/09/30 11:37:43;;;;;;;7.63;6.35;;;10.80;99.90;;;;;;5036336;28;20025;-76
2022/09/30 11:40:20;;;;;;;9.35;6.25;;;10.70;99.90;;;;;;5018550;28;20172;-77
2022/09/30 11:43:11;;;;;;;7.65;6.28;;;10.80;99.90;;;;;;5036402;28;20056;-76
2022/09/30 11:45:57;;;;;;;6.43;5.40;;;10.80;99.90;;;;;;5036446;28;20026;-76
2022/09/30 11:48:44;;;;;;;6.47;5.82;;;10.70;99.90;;;;;;5036374;28;20035;-76
2022/09/30 11:51:23;;;;;;;7.88;6.25;;;10.70;99.90;;;;;;5036200;28;20053;-76
2022/09/30 11:54:31;;;;;;;5.88;5.28;;;10.70;99.90;;;;;;5018419;28;20022;-76
2022/09/30 11:57:21;;;;;;;7.70;5.70;;;10.70;99.90;;;;;;4955919;29;20031;-74
2022/09/30 12:00:07;;;;;;;7.25;5.45;;;10.70;99.90;;;;;;5032763;28;20034;-74
2022/09/30 12:02:37;;;;;;;7.40;5.95;;;10.60;99.90;;;;;;5036119;28;20032;-74
2022/09/30 12:05:23;;;;;;;9.27;6.63;;;10.60;99.90;;;;;;5035962;28;20030;-74
2022/09/30 12:07:51;;;;;;;7.75;5.90;;;10.60;99.90;;;;;;5035848;28;20030;-74
2022/09/30 12:10:26;;;;;;;8.55;6.43;;;10.60;99.90;;;;;;5034121;28;20376;-73
2022/09/30 12:13:04;;;;;;;9.60;6.85;;;10.60;99.90;;;;;;5034554;28;20021;-74
2022/09/30 12:15:31;;;;;;;15.73;10.63;;;10.50;99.90;;;;;;5034548;28;20506;-76
2022/09/30 12:18:04;;;;;;;15.20;9.13;;;10.60;99.90;;;;;;5034490;28;20018;-76
2022/09/30 12:20:29;;;;;;;;;;;10.60;99.90;;;;;;5036364;28;20045;-76
2022/09/30 12:23:30;;;;;;;8.00;5.90;;;10.60;99.90;;;;;;5035625;28;19909;-76
2022/09/30 12:25:58;;;;;;;12.35;7.60;;;10.70;99.90;;;;;;5031441;28;20113;-74
2022/09/30 12:31:54;;;;;;;26.30;15.70;;;10.70;99.90;;;;;;5035662;28;20060;-74
2022/09/30 12:34:52;;;;;;;18.13;11.00;;;10.80;99.90;;;;;;5017591;28;20025;-75
2022/09/30 12:37:43;;;;;;;18.17;11.40;;;10.80;99.90;;;;;;5035376;28;20017;-74
2022/09/30 12:40:16;;;;;;;11.60;9.10;;;10.80;99.90;;;;;;5035234;28;20036;-74
2022/09/30 12:42:50;;;;;;;10.38;8.10;;;10.70;99.90;;;;;;5017340;28;20102;-74
2022/09/30 12:45:50;;;;;;;8.10;7.00;;;10.70;99.90;;;;;;5035367;28;20032;-74
2022/09/30 12:48:20;;;;;;;11.15;7.50;;;10.70;99.90;;;;;;5035196;28;20429;-74
2022/09/30 12:50:52;;;;;;;6.57;5.68;;;10.70;99.90;;;;;;5035107;28;20022;-74
2022/09/30 12:53:38;;;;;;;9.20;6.13;;;10.70;99.90;;;;;;5017307;28;20033;-74
2022/09/30 12:56:12;;;;;;;8.52;6.80;;;10.70;99.90;;;;;;5017094;28;20430;-75
2022/09/30 12:58:46;;;;;;;6.68;4.53;;;10.80;99.90;;;;;;5034814;28;20039;-74
2022/09/30 13:01:22;;;;;;;6.07;4.68;;;10.80;99.90;;;;;;5017131;28;20048;-74
2022/09/30 13:03:59;;;;;;;5.38;4.75;;;10.80;99.90;;;;;;5034746;28;20510;-74
2022/09/30 13:06:43;;;;;;;4.38;3.97;;;10.90;99.90;;;;;;5034947;28;20022;-74
2022/09/30 13:09:15;;;;;;;6.88;4.65;;;10.90;99.90;;;;;;5034733;28;20065;-74
2022/09/30 13:11:43;;;;;;;14.35;10.82;;;11.00;99.90;;;;;;5034772;28;20021;-75
2022/09/30 13:14:26;;;;;;;16.45;11.63;;;11.00;99.90;;;;;;5033376;28;20025;-74